Humboldt, TN

1:39 PM CDT on August 27, 2016 (GMT -0500)
Sunnyslope Sub. | | Change Station

Elev 397 ft 35.76 °N, 88.84 °W | Updated 14 minutes ago

Clear
Clear
94.1 °F
Feels Like 109 °F
N
2.7
Wind Variable Wind from SW

Today
High -- | Low -- °F
--% Chance of Precip.
Yesterday
High -- | Low -- °F
Precip. -- in
Pressure 30.06 in
Visibility 10.0 miles
Clouds Clear
Heat Index 109 °F
Dew Point 77 °F
Humidity 58%
Rainfall 0.00 in
Snow Depth Not available.
6:24 AM 7:29 PM
Waning Crescent, 22% visible
METAR KMKL 271753Z 00000KT 10SM CLR 31/24 A3007 RMK AO2 SLP177 T03110244 10311 20211 58013
Pressure 30.06 in
Visibility 10.0 miles
Clouds Clear
Heat Index 109 °F
Dew Point 77 °F
Humidity 58%
Rainfall 0.00 in
Snow Depth Not available.
6:24 AM 7:29 PM
Waning Crescent, 22% visible
METAR KMKL 271753Z 00000KT 10SM CLR 31/24 A3007 RMK AO2 SLP177 T03110244 10311 20211 58013

10-Day Weather Forecast

Almanac

Astronomy

Aug. 27, 2016 Rise Set
Actual Time
Civil Twilight
Nautical Twilight
Astronomical Twilight
Moon
Length of Visible Light
Length of Day
Tomorrow will be .
, % of the Moon is Illuminated

Today's Extremes

State Highs State Lows

Community

WunderPhotos

Upload Photos

1,935,396 photos uploaded!

WunderBlog® & News

Nearby

Air Quality

  Air Quality AQ Index Pollutant
Not available.

Snow Depth

Station Depth Elevation

Earthquake Activity

City Distance Mag. Time & Date
Minimum magnitude displayed is 2.5.

Coastal Water Temperatures

Place Temperature

Stations

Nearby Weather Stations

Station Location Temp. Windchill Dew Point Humidity Wind Precip. Elev Updated Type
                   

Watches & Warnings

There are currently no watches in effect.